Time,TemperatureF,DewpointF,PressureIn,WindDirection,WindDirectionDegrees,WindSpeedMPH,WindSpeedGustMPH,Humidity,HourlyPrecipIn,Conditions,Clouds,dailyrainin,SoftwareType,DateUTC
2013-11-14 00:13:00,25.0,18.0,30.35,NW,326,0.0,0.0,74,0.00,,,0.00,,2013-11-14 05:13:00,
2013-11-14 00:23:00,25.0,18.0,30.35,NW,326,0.0,0.0,74,0.00,,,0.00,,2013-11-14 05:23:00,
2013-11-14 00:44:00,24.0,17.0,30.36,NW,326,0.0,0.0,75,0.00,,,0.00,,2013-11-14 05:44:00,
2013-11-14 00:53:00,24.0,17.0,30.36,NW,326,0.0,0.0,75,0.00,,,0.00,,2013-11-14 05:53:00,
2013-11-14 01:12:00,24.0,17.0,30.35,NW,326,0.0,0.0,74,0.00,,,0.00,,2013-11-14 06:12:00,
2013-11-14 01:22:00,24.0,17.0,30.35,NW,326,0.0,0.0,74,0.00,,,0.00,,2013-11-14 06:22:00,
2013-11-14 01:42:00,24.0,18.0,30.35,NW,326,0.0,0.0,78,0.00,,,0.00,,2013-11-14 06:42:00,
2013-11-14 01:52:00,24.0,18.0,30.35,NW,326,0.0,0.0,78,0.00,,,0.00,,2013-11-14 06:52:00,
2013-11-14 02:11:00,23.0,17.0,30.35,NW,326,0.0,0.0,79,0.00,,,0.00,,2013-11-14 07:11:00,
2013-11-14 02:22:00,23.0,17.0,30.35,NW,326,0.0,0.0,79,0.00,,,0.00,,2013-11-14 07:22:00,
2013-11-14 02:42:00,23.0,17.0,30.33,NW,326,0.0,0.0,76,0.00,,,0.00,,2013-11-14 07:42:00,
2013-11-14 02:53:00,23.0,17.0,30.33,NW,326,0.0,0.0,76,0.00,,,0.00,,2013-11-14 07:53:00,
2013-11-14 03:12:00,23.0,17.0,30.33,NW,326,0.0,0.0,76,0.00,,,0.00,,2013-11-14 08:12:00,
2013-11-14 03:22:00,23.0,17.0,30.33,NW,326,0.0,0.0,76,0.00,,,0.00,,2013-11-14 08:22:00,
2013-11-14 03:42:00,23.0,17.0,30.33,NW,326,0.0,0.0,79,0.00,,,0.00,,2013-11-14 08:42:00,
2013-11-14 03:53:00,23.0,17.0,30.33,NW,326,0.0,0.0,79,0.00,,,0.00,,2013-11-14 08:53:00,
2013-11-14 04:11:00,23.0,17.0,30.33,NW,326,0.0,0.0,78,0.00,,,0.00,,2013-11-14 09:11:00,
2013-11-14 04:22:00,23.0,17.0,30.33,NW,326,0.0,0.0,78,0.00,,,0.00,,2013-11-14 09:22:00,
2013-11-14 04:43:00,22.0,17.0,30.34,NW,326,0.0,0.0,80,0.00,,,0.00,,2013-11-14 09:43:00,
2013-11-14 04:53:00,22.0,17.0,30.34,NW,326,0.0,0.0,80,0.00,,,0.00,,2013-11-14 09:53:00,
2013-11-14 05:12:00,22.0,16.0,30.33,NW,326,0.0,0.0,78,0.00,,,0.00,,2013-11-14 10:12:00,
2013-11-14 05:23:00,22.0,16.0,30.33,NW,326,0.0,0.0,78,0.00,,,0.00,,2013-11-14 10:23:00,
2013-11-14 05:42:00,21.0,16.0,30.32,NW,326,0.0,0.0,82,0.00,,,0.00,,2013-11-14 10:42:00,
2013-11-14 05:52:00,21.0,16.0,30.32,NW,326,0.0,0.0,82,0.00,,,0.00,,2013-11-14 10:52:00,
2013-11-14 06:11:00,20.0,16.0,30.33,NW,326,0.0,0.0,85,0.00,,,0.00,,2013-11-14 11:11:00,
2013-11-14 06:22:00,20.0,16.0,30.33,NW,326,0.0,0.0,85,0.00,,,0.00,,2013-11-14 11:22:00,
2013-11-14 06:42:00,20.0,16.0,30.33,NW,326,0.0,0.0,83,0.00,,,0.00,,2013-11-14 11:42:00,
2013-11-14 06:52:00,20.0,16.0,30.33,NW,326,0.0,0.0,83,0.00,,,0.00,,2013-11-14 11:52:00,
2013-11-14 07:12:00,21.0,16.0,30.34,NW,326,0.0,0.0,81,0.00,,,0.00,,2013-11-14 12:12:00,
2013-11-14 07:22:00,21.0,16.0,30.34,NW,326,0.0,0.0,81,0.00,,,0.00,,2013-11-14 12:22:00,
2013-11-14 07:42:00,21.0,17.0,30.35,NW,326,0.0,0.0,85,0.00,,,0.00,,2013-11-14 12:42:00,
2013-11-14 07:52:00,21.0,17.0,30.35,NW,326,0.0,0.0,85,0.00,,,0.00,,2013-11-14 12:52:00,
2013-11-14 08:11:00,21.0,17.0,30.35,NW,326,0.0,0.0,86,0.00,,,0.00,,2013-11-14 13:11:00,
2013-11-14 08:22:00,21.0,17.0,30.35,NW,326,0.0,0.0,86,0.00,,,0.00,,2013-11-14 13:22:00,
2013-11-14 08:42:00,23.0,19.0,30.36,NW,326,0.0,0.0,84,0.00,,,0.00,,2013-11-14 13:42:00,
2013-11-14 08:52:00,23.0,19.0,30.36,NW,326,0.0,0.0,84,0.00,,,0.00,,2013-11-14 13:52:00,
2013-11-14 09:11:00,25.0,20.0,30.36,NNW,332,0.0,0.0,82,0.00,,,0.00,,2013-11-14 14:11:00,
2013-11-14 09:22:00,25.0,20.0,30.36,NNW,332,0.0,0.0,82,0.00,,,0.00,,2013-11-14 14:22:00,
2013-11-14 09:42:00,29.0,22.0,30.34,ENE,64,0.0,1.0,74,0.00,,,0.00,,2013-11-14 14:42:00,
2013-11-14 09:52:00,29.0,22.0,30.34,ENE,64,0.0,1.0,74,0.00,,,0.00,,2013-11-14 14:52:00,
2013-11-14 10:11:00,32.0,23.0,30.37,ENE,66,0.0,2.0,69,0.00,,,0.00,,2013-11-14 15:11:00,
2013-11-14 10:22:00,32.0,23.0,30.37,ENE,66,0.0,2.0,69,0.00,,,0.00,,2013-11-14 15:22:00,
2013-11-14 10:43:00,37.0,25.0,30.36,SSW,210,0.0,1.0,61,0.00,,,0.00,,2013-11-14 15:43:00,
2013-11-14 10:53:00,37.0,25.0,30.36,SSW,210,0.0,1.0,61,0.00,,,0.00,,2013-11-14 15:53:00,
2013-11-14 11:13:00,41.0,25.0,30.35,ENE,78,0.0,3.0,52,0.00,,,0.00,,2013-11-14 16:13:00,
2013-11-14 11:23:00,41.0,25.0,30.35,ENE,78,0.0,3.0,52,0.00,,,0.00,,2013-11-14 16:23:00,
2013-11-14 11:41:00,48.0,19.0,30.33,ENE,76,0.0,1.0,31,0.00,,,0.00,,2013-11-14 16:41:00,
2013-11-14 11:42:00,45.0,22.0,30.35,ENE,76,0.0,0.0,39,0.00,,,0.00,,2013-11-14 16:42:00,
2013-11-14 11:52:00,45.0,22.0,30.35,ENE,76,0.0,0.0,39,0.00,,,0.00,,2013-11-14 16:52:00,
2013-11-14 12:13:00,48.0,19.0,30.33,ENE,76,0.0,1.0,31,0.00,,,0.00,,2013-11-14 17:13:00,
2013-11-14 12:23:00,48.0,19.0,30.33,ENE,76,0.0,1.0,31,0.00,,,0.00,,2013-11-14 17:23:00,
2013-11-14 12:33:00,48.0,19.0,30.33,ENE,76,0.0,1.0,31,0.00,,,0.00,,2013-11-14 17:33:00,
2013-11-14 13:22:00,57.0,20.0,30.30,ESE,102,0.0,2.0,23,0.00,,,0.00,,2013-11-14 18:22:00,
2013-11-14 13:42:00,59.0,21.0,30.28,NE,56,0.0,2.0,23,0.00,,,0.00,,2013-11-14 18:42:00,
2013-11-14 13:52:00,59.0,21.0,30.28,NE,56,0.0,2.0,23,0.00,,,0.00,,2013-11-14 18:52:00,
2013-11-14 14:11:00,58.0,18.0,30.27,ESE,112,0.0,1.0,21,0.00,,,0.00,,2013-11-14 19:11:00,
2013-11-14 14:22:00,58.0,18.0,30.27,ESE,112,0.0,1.0,21,0.00,,,0.00,,2013-11-14 19:22:00,
2013-11-14 14:42:00,56.0,20.0,30.24,East,83,0.0,2.0,24,0.00,,,0.00,,2013-11-14 19:42:00,
2013-11-14 14:52:00,56.0,20.0,30.24,East,83,0.0,2.0,24,0.00,,,0.00,,2013-11-14 19:52:00,
2013-11-14 15:12:00,55.0,20.0,30.22,East,79,0.0,1.0,25,0.00,,,0.00,,2013-11-14 20:12:00,
2013-11-14 15:22:00,55.0,20.0,30.22,East,79,0.0,1.0,25,0.00,,,0.00,,2013-11-14 20:22:00,
2013-11-14 15:42:00,55.0,20.0,30.22,SW,234,0.0,2.0,25,0.00,,,0.00,,2013-11-14 20:42:00,
2013-11-14 15:52:00,55.0,20.0,30.22,SW,234,0.0,2.0,25,0.00,,,0.00,,2013-11-14 20:52:00,
2013-11-14 16:11:00,55.0,22.0,30.21,SE,133,0.0,1.0,27,0.00,,,0.00,,2013-11-14 21:11:00,
2013-11-14 16:22:00,55.0,22.0,30.21,SE,133,0.0,1.0,27,0.00,,,0.00,,2013-11-14 21:22:00,
2013-11-14 16:43:00,54.0,23.0,30.21,East,95,0.0,2.0,30,0.00,,,0.00,,2013-11-14 21:43:00,
2013-11-14 16:53:00,54.0,23.0,30.21,East,95,0.0,2.0,30,0.00,,,0.00,,2013-11-14 21:53:00,
2013-11-14 17:13:00,51.0,22.0,30.23,East,80,1.0,5.0,32,0.00,,,0.00,,2013-11-14 22:13:00,
2013-11-14 17:23:00,51.0,22.0,30.23,East,80,1.0,5.0,32,0.00,,,0.00,,2013-11-14 22:23:00,
2013-11-14 17:43:00,48.0,22.0,30.24,ESE,123,0.0,2.0,35,0.00,,,0.00,,2013-11-14 22:43:00,
2013-11-14 17:53:00,48.0,22.0,30.24,ESE,123,0.0,2.0,35,0.00,,,0.00,,2013-11-14 22:53:00,
2013-11-14 18:12:00,46.0,21.0,30.22,East,82,1.0,3.0,37,0.00,,,0.00,,2013-11-14 23:12:00,
2013-11-14 18:22:00,46.0,21.0,30.22,East,82,1.0,3.0,37,0.00,,,0.00,,2013-11-14 23:22:00,
2013-11-14 18:43:00,44.0,20.0,30.24,East,100,0.0,3.0,38,0.00,,,0.00,,2013-11-14 23:43:00,
2013-11-14 18:52:00,44.0,20.0,30.24,East,100,0.0,3.0,38,0.00,,,0.00,,2013-11-14 23:52:00,
2013-11-14 19:11:00,43.0,20.0,30.24,East,90,0.0,0.0,40,0.00,,,0.00,,2013-11-15 00:11:00,
2013-11-14 19:22:00,43.0,20.0,30.24,East,90,0.0,0.0,40,0.00,,,0.00,,2013-11-15 00:22:00,
2013-11-14 19:42:00,41.0,21.0,30.24,ESE,116,0.0,2.0,44,0.00,,,0.00,,2013-11-15 00:42:00,
2013-11-14 19:52:00,41.0,21.0,30.24,ESE,116,0.0,2.0,44,0.00,,,0.00,,2013-11-15 00:52:00,
2013-11-14 20:12:00,40.0,20.0,30.25,ESE,116,0.0,0.0,45,0.00,,,0.00,,2013-11-15 01:12:00,
2013-11-14 20:22:00,40.0,20.0,30.25,ESE,116,0.0,0.0,45,0.00,,,0.00,,2013-11-15 01:22:00,
2013-11-14 20:42:00,39.0,21.0,30.23,ESE,107,0.0,1.0,48,0.00,,,0.00,,2013-11-15 01:42:00,
2013-11-14 20:52:00,39.0,21.0,30.23,ESE,107,0.0,1.0,48,0.00,,,0.00,,2013-11-15 01:52:00,
2013-11-14 21:12:00,38.0,21.0,30.23,ENE,73,0.0,2.0,50,0.00,,,0.00,,2013-11-15 02:12:00,
2013-11-14 21:22:00,38.0,21.0,30.23,ENE,73,0.0,2.0,50,0.00,,,0.00,,2013-11-15 02:22:00,
2013-11-14 21:42:00,38.0,22.0,30.25,ESE,102,0.0,3.0,52,0.00,,,0.00,,2013-11-15 02:42:00,
2013-11-14 21:52:00,38.0,22.0,30.25,ESE,102,0.0,3.0,52,0.00,,,0.00,,2013-11-15 02:52:00,
2013-11-14 22:12:00,37.0,22.0,30.25,East,100,0.0,2.0,54,0.00,,,0.00,,2013-11-15 03:12:00,
2013-11-14 22:22:00,37.0,22.0,30.25,East,100,0.0,2.0,54,0.00,,,0.00,,2013-11-15 03:22:00,
2013-11-14 22:44:00,36.0,22.0,30.25,ENE,64,0.0,1.0,57,0.00,,,0.00,,2013-11-15 03:44:00,
2013-11-14 22:54:00,36.0,22.0,30.25,ENE,64,0.0,1.0,57,0.00,,,0.00,,2013-11-15 03:54:00,
2013-11-14 23:11:00,35.0,22.0,30.23,SSW,200,0.0,2.0,59,0.00,,,0.00,,2013-11-15 04:11:00,
2013-11-14 23:14:00,36.0,22.0,30.24,ENE,73,0.0,1.0,56,0.00,,,0.00,,2013-11-15 04:14:00,
2013-11-14 23:24:00,36.0,22.0,30.24,ENE,73,0.0,1.0,56,0.00,,,0.00,,2013-11-15 04:24:00,
2013-11-14 23:43:00,35.0,22.0,30.23,SSW,200,0.0,2.0,59,0.00,,,0.00,,2013-11-15 04:43:00,
2013-11-14 23:53:00,35.0,22.0,30.23,SSW,200,0.0,2.0,59,0.00,,,0.00,,2013-11-15 04:53:00,